createdAt,value
2022-11-27T00:00:37.956Z,0
2022-11-27T00:00:57.615Z,0
2022-11-27T00:01:27.608Z,0
2022-11-27T00:01:58.639Z,0
2022-11-27T00:02:29.821Z,0
2022-11-27T00:03:01.009Z,0
2022-11-27T00:03:32.017Z,0
2022-11-27T00:04:02.710Z,0
2022-11-27T00:04:33.615Z,0
2022-11-27T00:05:04.742Z,0
2022-11-27T00:05:35.621Z,0
2022-11-27T00:06:07.702Z,0
2022-11-27T00:06:37.621Z,0
2022-11-27T00:07:08.766Z,0
2022-11-27T00:07:39.767Z,0
2022-11-27T00:08:10.624Z,0
2022-11-27T00:08:41.631Z,0
2022-11-27T00:09:12.610Z,0
2022-11-27T00:09:43.881Z,0
2022-11-27T00:10:14.614Z,-.11
2022-11-27T00:10:45.643Z,-.11
2022-11-27T00:11:17.617Z,-.11
2022-11-27T00:11:47.616Z,-.11
2022-11-27T00:12:18.682Z,-.11
2022-11-27T00:12:49.657Z,-.22
2022-11-27T00:13:20.620Z,-.22
2022-11-27T00:13:51.649Z,-.22
2022-11-27T00:14:22.632Z,-.22
2022-11-27T00:14:55.697Z,-.22
2022-11-27T00:15:37.018Z,-.22
2022-11-27T00:15:55.693Z,-.22
2022-11-27T00:16:27.717Z,-.22
2022-11-27T00:16:57.644Z,-.27
2022-11-27T00:17:28.681Z,-.27
2022-11-27T00:17:59.611Z,-.27
2022-11-27T00:18:31.043Z,-.27
2022-11-27T00:19:01.748Z,-.27
2022-11-27T00:19:32.736Z,-.27
2022-11-27T00:20:03.637Z,-.27
2022-11-27T00:20:35.553Z,-.27
2022-11-27T00:21:05.812Z,-.27
2022-11-27T00:21:37.613Z,-.27
2022-11-27T00:22:07.627Z,-.27
2022-11-27T00:22:38.620Z,-.27
2022-11-27T00:23:09.625Z,-.27
2022-11-27T00:23:40.648Z,-.27
2022-11-27T00:24:11.610Z,-.27
2022-11-27T00:24:42.661Z,-.27
2022-11-27T00:25:13.609Z,-.27
2022-11-27T00:25:44.622Z,-.27
2022-11-27T00:26:15.641Z,-.27
2022-11-27T00:26:47.602Z,-.38
2022-11-27T00:27:17.637Z,-.38
2022-11-27T00:27:48.618Z,-.38
2022-11-27T00:28:19.652Z,-.38
2022-11-27T00:28:50.617Z,-.38
2022-11-27T00:29:21.660Z,-.38
2022-11-27T00:29:52.618Z,-.38
2022-11-27T00:30:35.929Z,-.38
2022-11-27T00:30:54.787Z,-.38
2022-11-27T00:31:25.807Z,-.38
2022-11-27T00:31:57.917Z,-.38
2022-11-27T00:32:27.664Z,-.38
2022-11-27T00:32:58.632Z,-.38
2022-11-27T00:33:29.631Z,-.38
2022-11-27T00:34:00.832Z,-.38
2022-11-27T00:34:31.689Z,-.38
2022-11-27T00:35:09.533Z,-.38
2022-11-27T00:35:33.964Z,-.38
2022-11-27T00:36:04.906Z,-.50
2022-11-27T00:36:35.621Z,-.50
2022-11-27T00:37:07.739Z,-.50
2022-11-27T00:37:37.664Z,-.50
2022-11-27T00:38:08.673Z,-.50
2022-11-27T00:38:39.629Z,-.50
2022-11-27T00:39:10.622Z,-.50
2022-11-27T00:39:41.690Z,-.50
2022-11-27T00:40:12.605Z,-.50
2022-11-27T00:40:43.766Z,-.50
2022-11-27T00:41:14.666Z,-.50
2022-11-27T00:41:45.601Z,-.50
2022-11-27T00:42:17.614Z,-.50
2022-11-27T00:42:47.615Z,-.50
2022-11-27T00:43:18.645Z,-.38
2022-11-27T00:43:49.607Z,-.38
2022-11-27T00:44:20.595Z,-.38
2022-11-27T00:44:51.607Z,-.38
2022-11-27T00:45:34.935Z,-.38
2022-11-27T00:45:53.680Z,-.38
2022-11-27T00:46:28.348Z,-.38
2022-11-27T00:46:55.616Z,-.27
2022-11-27T00:47:27.757Z,-.27
2022-11-27T00:47:57.659Z,-.27
2022-11-27T00:48:28.631Z,-.27
2022-11-27T00:48:59.590Z,-.27
2022-11-27T00:49:30.656Z,-.27
2022-11-27T00:50:01.763Z,-.27
2022-11-27T00:50:32.598Z,-.22
2022-11-27T00:51:03.635Z,-.22
2022-11-27T00:51:34.791Z,-.22
2022-11-27T00:52:05.687Z,-.22
2022-11-27T00:52:37.777Z,-.22
2022-11-27T00:53:07.766Z,-.22
2022-11-27T00:53:38.622Z,-.22
2022-11-27T00:54:09.621Z,-.22
2022-11-27T00:54:40.790Z,-.22
2022-11-27T00:55:11.934Z,-.11
2022-11-27T00:55:42.598Z,-.11
2022-11-27T00:56:13.595Z,-.11
2022-11-27T00:56:44.629Z,-.11
2022-11-27T00:57:15.586Z,-.11
2022-11-27T00:57:47.734Z,-.11
2022-11-27T00:58:17.837Z,-.11
2022-11-27T00:58:48.618Z,-.11
2022-11-27T00:59:19.644Z,-.11
2022-11-27T00:59:50.601Z,-.11
2022-11-27T01:00:33.928Z,-.11
2022-11-27T01:00:52.602Z,-.11
2022-11-27T01:01:23.671Z,-.11
2022-11-27T01:01:54.657Z,-.11
2022-11-27T01:02:25.730Z,-.11
2022-11-27T01:02:57.741Z,-.11
2022-11-27T01:03:27.618Z,-.11
2022-11-27T01:03:58.657Z,0
2022-11-27T01:04:29.736Z,0
2022-11-27T01:05:00.865Z,0
2022-11-27T01:05:31.613Z,0
2022-11-27T01:06:02.695Z,0
2022-11-27T01:06:33.611Z,0
2022-11-27T01:07:04.675Z,0
2022-11-27T01:07:35.665Z,0
2022-11-27T01:08:07.673Z,0
2022-11-27T01:08:37.627Z,0
2022-11-27T01:09:08.689Z,0
2022-11-27T01:09:39.644Z,0
2022-11-27T01:10:10.602Z,0
2022-11-27T01:10:41.599Z,0
2022-11-27T01:11:12.602Z,0
2022-11-27T01:11:43.691Z,0
2022-11-27T01:12:14.658Z,0
2022-11-27T01:12:45.586Z,0
2022-11-27T01:13:17.589Z,0
2022-11-27T01:13:47.612Z,0
2022-11-27T01:14:18.601Z,0
2022-11-27T01:14:49.638Z,0
2022-11-27T01:15:32.933Z,0
2022-11-27T01:15:51.656Z,0
2022-11-27T01:16:22.698Z,0
2022-11-27T01:16:53.636Z,0
2022-11-27T01:17:24.619Z,0
2022-11-27T01:17:55.598Z,0
2022-11-27T01:18:27.625Z,0
2022-11-27T01:18:57.660Z,0
2022-11-27T01:19:28.679Z,0
2022-11-27T01:19:59.596Z,0
2022-11-27T01:20:30.601Z,0
2022-11-27T01:21:01.698Z,0
2022-11-27T01:21:32.639Z,0
2022-11-27T01:22:03.619Z,0
2022-11-27T01:22:34.663Z,0
2022-11-27T01:23:05.661Z,0
2022-11-27T01:23:37.669Z,0
2022-11-27T01:24:07.626Z,0
2022-11-27T01:24:39.083Z,0
2022-11-27T01:25:09.637Z,0
2022-11-27T01:25:40.635Z,0
2022-11-27T01:26:11.597Z,0
2022-11-27T01:26:42.581Z,0
2022-11-27T01:27:13.605Z,0
2022-11-27T01:27:44.648Z,.11
2022-11-27T01:28:15.583Z,.11
2022-11-27T01:28:47.594Z,.11
2022-11-27T01:29:17.596Z,.11
2022-11-27T01:29:48.604Z,.11
2022-11-27T01:30:32.092Z,.11
2022-11-27T01:30:51.785Z,.11
2022-11-27T01:31:21.839Z,.11
2022-11-27T01:31:54.660Z,.11
2022-11-27T01:32:24.738Z,.11
2022-11-27T01:32:54.646Z,.11
2022-11-27T01:33:25.639Z,.11
2022-11-27T01:33:57.612Z,.11
2022-11-27T01:34:27.620Z,.11
2022-11-27T01:35:05.810Z,.11
2022-11-27T01:35:31.328Z,.11
2022-11-27T01:36:00.638Z,.11
2022-11-27T01:36:31.740Z,.11
2022-11-27T01:37:02.673Z,.11
2022-11-27T01:37:33.607Z,.11
2022-11-27T01:38:04.641Z,.11
2022-11-27T01:38:35.633Z,.11
2022-11-27T01:39:07.612Z,.11
2022-11-27T01:39:37.636Z,.11
2022-11-27T01:40:08.668Z,.11
2022-11-27T01:40:39.647Z,.11
2022-11-27T01:41:10.611Z,.11
2022-11-27T01:41:41.602Z,.11
2022-11-27T01:42:12.583Z,.11
2022-11-27T01:42:43.640Z,.11
2022-11-27T01:43:14.596Z,.11
2022-11-27T01:43:45.583Z,.11
2022-11-27T01:44:17.591Z,.11
2022-11-27T01:44:47.598Z,.11
2022-11-27T01:45:30.929Z,.11
2022-11-27T01:45:49.644Z,.11
2022-11-27T01:46:20.609Z,.11
2022-11-27T01:46:51.731Z,.11
2022-11-27T01:47:22.671Z,.11
2022-11-27T01:47:53.595Z,0
2022-11-27T01:48:24.582Z,0
2022-11-27T01:48:55.632Z,0
2022-11-27T01:49:27.578Z,0
2022-11-27T01:49:57.578Z,0
2022-11-27T01:50:28.587Z,0
2022-11-27T01:50:59.664Z,0
2022-11-27T01:51:30.582Z,0
2022-11-27T01:52:01.743Z,0
2022-11-27T01:52:32.585Z,0
2022-11-27T01:53:03.638Z,0
2022-11-27T01:53:34.627Z,0
2022-11-27T01:54:05.592Z,0
2022-11-27T01:54:37.789Z,0
2022-11-27T01:55:07.603Z,0
2022-11-27T01:55:38.588Z,-.11
2022-11-27T01:56:09.634Z,-.11
2022-11-27T01:56:40.591Z,-.11
2022-11-27T01:57:11.677Z,-.11
2022-11-27T01:57:42.605Z,-.11
2022-11-27T01:58:13.651Z,-.11
2022-11-27T01:58:44.584Z,-.11
2022-11-27T01:59:15.577Z,-.11
2022-11-27T01:59:47.600Z,-.11
2022-11-27T02:00:29.990Z,-.11
2022-11-27T02:00:48.609Z,-.22
2022-11-27T02:01:19.850Z,-.22
2022-11-27T02:01:50.784Z,-.22
2022-11-27T02:02:21.748Z,-.22
2022-11-27T02:02:53.584Z,-.22
2022-11-27T02:03:23.769Z,-.22
2022-11-27T02:03:54.703Z,-.27
2022-11-27T02:04:26.695Z,-.27
2022-11-27T02:04:57.663Z,-.27
2022-11-27T02:05:27.852Z,-.27
2022-11-27T02:05:58.657Z,-.27
2022-11-27T02:06:29.669Z,-.38
2022-11-27T02:07:00.937Z,-.38
2022-11-27T02:07:31.768Z,-.38
2022-11-27T02:08:02.653Z,-.38
2022-11-27T02:08:33.673Z,-.38
2022-11-27T02:09:04.735Z,-.50
2022-11-27T02:09:35.621Z,-.50
2022-11-27T02:10:08.172Z,-.50
2022-11-27T02:10:37.664Z,-.50
2022-11-27T02:11:08.695Z,-.50
2022-11-27T02:11:39.641Z,-.61
2022-11-27T02:12:10.780Z,-.61
2022-11-27T02:12:41.702Z,-.61
2022-11-27T02:13:12.648Z,-.61
2022-11-27T02:13:43.665Z,-.50
2022-11-27T02:14:14.635Z,-.50
2022-11-27T02:14:45.626Z,-.50
2022-11-27T02:15:30.144Z,-.50
2022-11-27T02:15:47.703Z,-.50
2022-11-27T02:16:18.872Z,-.50
2022-11-27T02:16:49.655Z,-.50
2022-11-27T02:17:20.611Z,-.50
2022-11-27T02:17:51.619Z,-.50
2022-11-27T02:18:22.616Z,-.50
2022-11-27T02:18:53.597Z,-.50
2022-11-27T02:19:24.689Z,-.50
2022-11-27T02:19:55.635Z,-.50
2022-11-27T02:20:27.651Z,-.50
2022-11-27T02:20:57.599Z,-.50
2022-11-27T02:21:28.598Z,-.50
2022-11-27T02:21:59.609Z,-.50
2022-11-27T02:22:31.111Z,-.50
2022-11-27T02:23:01.692Z,-.50
2022-11-27T02:23:32.698Z,-.50
2022-11-27T02:24:03.754Z,-.50
2022-11-27T02:24:34.647Z,-.38
2022-11-27T02:25:05.623Z,-.38
2022-11-27T02:25:37.606Z,-.38
2022-11-27T02:26:07.748Z,-.38
2022-11-27T02:26:38.587Z,-.38
2022-11-27T02:27:09.679Z,-.38
2022-11-27T02:27:40.583Z,-.38
2022-11-27T02:28:11.633Z,-.38
2022-11-27T02:28:42.596Z,-.38
2022-11-27T02:29:13.647Z,-.38
2022-11-27T02:29:44.671Z,-.38
2022-11-27T02:30:28.009Z,-.38
2022-11-27T02:30:47.870Z,-.38
2022-11-27T02:31:17.762Z,-.38
2022-11-27T02:31:48.727Z,-.38
2022-11-27T02:32:19.860Z,-.38
2022-11-27T02:32:50.660Z,-.38
2022-11-27T02:33:22.568Z,-.50
2022-11-27T02:33:52.589Z,-.50
2022-11-27T02:34:23.807Z,-.50
2022-11-27T02:34:54.665Z,-.50
2022-11-27T02:35:27.791Z,-.50
2022-11-27T02:35:57.668Z,-.50
2022-11-27T02:36:27.644Z,-.50
2022-11-27T02:36:58.592Z,-.50
2022-11-27T02:37:29.819Z,-.50
2022-11-27T02:38:00.662Z,-.38
2022-11-27T02:38:31.652Z,-.38
2022-11-27T02:39:02.722Z,-.38
2022-11-27T02:39:33.739Z,-.38
2022-11-27T02:40:04.693Z,-.38
2022-11-27T02:40:35.634Z,-.38
2022-11-27T02:41:07.612Z,-.50
2022-11-27T02:41:37.635Z,-.50
2022-11-27T02:42:08.602Z,-.50
2022-11-27T02:42:39.595Z,-.50
2022-11-27T02:43:10.638Z,-.50
2022-11-27T02:43:41.642Z,-.50
2022-11-27T02:44:12.565Z,-.50
2022-11-27T02:44:43.594Z,-.50
2022-11-27T02:45:26.905Z,-.50
2022-11-27T02:45:45.567Z,-.50
2022-11-27T02:46:17.654Z,-.50
2022-11-27T02:46:47.707Z,-.50
2022-11-27T02:47:18.574Z,-.50
2022-11-27T02:47:49.642Z,-.50
2022-11-27T02:48:20.584Z,-.50
2022-11-27T02:48:51.591Z,-.50
2022-11-27T02:49:22.579Z,-.50
2022-11-27T02:49:53.623Z,-.50
2022-11-27T02:50:24.618Z,-.50
2022-11-27T02:50:55.587Z,-.50
2022-11-27T02:51:27.561Z,-.50
2022-11-27T02:51:57.583Z,-.50
2022-11-27T02:52:28.581Z,-.50
2022-11-27T02:52:59.647Z,-.50
2022-11-27T02:53:30.564Z,-.50
2022-11-27T02:54:01.770Z,-.50
2022-11-27T02:54:32.575Z,-.50
2022-11-27T02:55:03.603Z,-.50
2022-11-27T02:55:34.636Z,-.50
2022-11-27T02:56:05.631Z,-.50
2022-11-27T02:56:37.584Z,-.50
2022-11-27T02:57:07.587Z,-.50
2022-11-27T02:57:38.599Z,-.50
2022-11-27T02:58:09.596Z,-.50
2022-11-27T02:58:40.582Z,-.50
2022-11-27T02:59:11.639Z,-.50
2022-11-27T02:59:42.567Z,-.50
2022-11-27T03:00:25.920Z,-.50
2022-11-27T03:00:44.569Z,-.50
2022-11-27T03:01:15.725Z,-.50
2022-11-27T03:01:47.620Z,-.50
2022-11-27T03:02:17.620Z,-.50
2022-11-27T03:02:48.706Z,-.50
2022-11-27T03:03:19.605Z,-.50
2022-11-27T03:03:50.600Z,-.50
2022-11-27T03:04:21.750Z,-.50
2022-11-27T03:04:52.552Z,-.50
2022-11-27T03:05:23.624Z,-.50
2022-11-27T03:05:54.569Z,-.50
2022-11-27T03:06:25.551Z,-.50
2022-11-27T03:06:57.666Z,-.50
2022-11-27T03:07:27.692Z,-.50
2022-11-27T03:07:58.695Z,-.50
2022-11-27T03:08:29.622Z,-.50
2022-11-27T03:09:00.686Z,-.50
2022-11-27T03:09:31.636Z,-.50
2022-11-27T03:10:02.661Z,-.50
2022-11-27T03:10:33.622Z,-.50
2022-11-27T03:11:04.600Z,-.50
2022-11-27T03:11:35.580Z,-.50
2022-11-27T03:12:07.639Z,-.50
2022-11-27T03:12:37.630Z,-.50
2022-11-27T03:13:08.618Z,-.50
2022-11-27T03:13:39.615Z,-.50
2022-11-27T03:14:10.578Z,-.50
2022-11-27T03:14:41.960Z,-.50
2022-11-27T03:15:24.891Z,-.50
2022-11-27T03:15:43.606Z,-.50
2022-11-27T03:16:14.712Z,-.50
2022-11-27T03:16:45.752Z,-.50
2022-11-27T03:17:17.584Z,-.50
2022-11-27T03:17:47.562Z,-.50
2022-11-27T03:18:18.585Z,-.50
2022-11-27T03:18:49.651Z,-.50
2022-11-27T03:19:20.911Z,-.50
2022-11-27T03:19:51.599Z,-.50
2022-11-27T03:20:22.575Z,-.50
2022-11-27T03:20:53.548Z,-.50
2022-11-27T03:21:24.559Z,-.50
2022-11-27T03:21:55.563Z,-.50
2022-11-27T03:22:27.566Z,-.50
2022-11-27T03:22:57.573Z,-.50
2022-11-27T03:23:28.645Z,-.50
2022-11-27T03:23:59.667Z,-.50
2022-11-27T03:24:30.603Z,-.50
2022-11-27T03:25:01.733Z,-.50
2022-11-27T03:25:32.583Z,-.50
2022-11-27T03:26:03.658Z,-.50
2022-11-27T03:26:34.576Z,-.50
2022-11-27T03:27:05.587Z,-.50
2022-11-27T03:27:37.576Z,-.50
2022-11-27T03:28:07.675Z,-.50
2022-11-27T03:28:38.553Z,-.50
2022-11-27T03:29:09.793Z,-.50
2022-11-27T03:29:40.582Z,-.50
2022-11-27T03:30:23.985Z,-.50
2022-11-27T03:30:42.719Z,-.61
2022-11-27T03:31:13.836Z,-.61
2022-11-27T03:31:44.844Z,-.61
2022-11-27T03:32:15.615Z,-.61
2022-11-27T03:32:47.629Z,-.61
2022-11-27T03:33:17.649Z,-.61
2022-11-27T03:33:48.595Z,-.61
2022-11-27T03:34:19.679Z,-.61
2022-11-27T03:34:50.825Z,-.61
2022-11-27T03:35:27.554Z,-.61
2022-11-27T03:35:52.667Z,-.61
2022-11-27T03:36:23.680Z,-.61
2022-11-27T03:36:54.556Z,-.61
2022-11-27T03:37:25.592Z,-.61
2022-11-27T03:37:57.559Z,-.61
2022-11-27T03:38:27.579Z,-.61
2022-11-27T03:38:58.668Z,-.50
2022-11-27T03:39:29.594Z,-.50
2022-11-27T03:40:00.774Z,-.50
2022-11-27T03:40:31.595Z,-.50
2022-11-27T03:41:02.587Z,-.61
2022-11-27T03:41:33.577Z,-.61
2022-11-27T03:42:04.732Z,-.61
2022-11-27T03:42:35.565Z,-.61
2022-11-27T03:43:07.703Z,-.61
2022-11-27T03:43:37.576Z,-.61
2022-11-27T03:44:08.572Z,-.61
2022-11-27T03:44:39.903Z,-.61
2022-11-27T03:45:22.882Z,-.61
2022-11-27T03:45:41.612Z,-.61
2022-11-27T03:46:12.566Z,-.61
2022-11-27T03:46:43.615Z,-.61
2022-11-27T03:47:14.643Z,-.61
2022-11-27T03:47:45.676Z,-.61
2022-11-27T03:48:17.620Z,-.61
2022-11-27T03:48:47.581Z,-.61
2022-11-27T03:49:18.567Z,-.61
2022-11-27T03:49:49.609Z,-.50
2022-11-27T03:50:20.603Z,-.50
2022-11-27T03:50:51.566Z,-.50
2022-11-27T03:51:22.612Z,-.50
2022-11-27T03:51:53.611Z,-.50
2022-11-27T03:52:24.578Z,-.50
2022-11-27T03:52:55.620Z,-.50
2022-11-27T03:53:27.577Z,-.50
2022-11-27T03:53:57.593Z,-.50
2022-11-27T03:54:28.625Z,-.50
2022-11-27T03:54:59.636Z,-.50
2022-11-27T03:55:30.798Z,-.50
2022-11-27T03:56:06.772Z,-.50
2022-11-27T03:56:32.569Z,-.50
2022-11-27T03:57:03.635Z,-.50
2022-11-27T03:57:34.580Z,-.50
2022-11-27T03:58:05.562Z,-.50
2022-11-27T03:58:37.589Z,-.50
2022-11-27T03:59:07.644Z,-.50
2022-11-27T03:59:38.611Z,-.50
2022-11-27T04:00:21.957Z,-.50
2022-11-27T04:00:40.594Z,-.50
2022-11-27T04:01:11.640Z,-.50
2022-11-27T04:01:42.776Z,-.50
2022-11-27T04:02:13.708Z,-.50
2022-11-27T04:02:44.557Z,-.50
2022-11-27T04:03:15.560Z,-.50
2022-11-27T04:03:47.661Z,-.50
2022-11-27T04:04:17.711Z,-.50
2022-11-27T04:04:48.621Z,-.50
2022-11-27T04:05:19.553Z,-.50
2022-11-27T04:05:50.589Z,-.50
2022-11-27T04:06:21.659Z,-.50
2022-11-27T04:06:52.563Z,-.50
2022-11-27T04:07:23.605Z,-.50
2022-11-27T04:07:54.595Z,-.50
2022-11-27T04:08:25.611Z,-.38
2022-11-27T04:08:57.572Z,-.38
2022-11-27T04:09:27.583Z,-.38
2022-11-27T04:09:58.620Z,-.38
2022-11-27T04:10:29.739Z,-.50
2022-11-27T04:11:00.705Z,-.50
2022-11-27T04:11:31.872Z,-.50
2022-11-27T04:12:02.598Z,-.50
2022-11-27T04:12:33.636Z,-.50
2022-11-27T04:13:04.635Z,-.50
2022-11-27T04:13:35.560Z,-.50
2022-11-27T04:14:07.565Z,-.50
2022-11-27T04:14:37.760Z,-.50
2022-11-27T04:15:20.994Z,-.50
2022-11-27T04:15:39.622Z,-.50
2022-11-27T04:16:10.642Z,-.50
2022-11-27T04:16:41.672Z,-.50
2022-11-27T04:17:12.556Z,-.50
2022-11-27T04:17:43.640Z,-.50
2022-11-27T04:18:14.609Z,-.50
2022-11-27T04:18:45.563Z,-.38
2022-11-27T04:19:17.580Z,-.38
2022-11-27T04:19:47.787Z,-.38
2022-11-27T04:20:18.642Z,-.38
2022-11-27T04:20:49.612Z,-.38
2022-11-27T04:21:20.683Z,-.38
2022-11-27T04:21:51.579Z,-.38
2022-11-27T04:22:22.734Z,-.38
2022-11-27T04:22:53.614Z,-.38
2022-11-27T04:23:24.554Z,-.38
2022-11-27T04:23:55.626Z,-.38
2022-11-27T04:24:27.551Z,-.38
2022-11-27T04:24:57.553Z,-.38
2022-11-27T04:25:28.562Z,-.38
2022-11-27T04:25:59.751Z,-.38
2022-11-27T04:26:30.589Z,-.38
2022-11-27T04:27:01.724Z,-.38
2022-11-27T04:27:32.549Z,-.38
2022-11-27T04:28:03.629Z,-.38
2022-11-27T04:28:34.580Z,-.38
2022-11-27T04:29:05.700Z,-.38
2022-11-27T04:29:37.559Z,-.38
2022-11-27T04:30:20.038Z,-.38
2022-11-27T04:30:39.044Z,-.38
2022-11-27T04:31:09.761Z,-.38
2022-11-27T04:31:40.874Z,-.38
2022-11-27T04:32:18.686Z,-.38
2022-11-27T04:32:42.617Z,-.38
2022-11-27T04:33:14.471Z,-.38
2022-11-27T04:33:44.569Z,-.38
2022-11-27T04:34:15.608Z,-.38
2022-11-27T04:34:47.777Z,-.38
2022-11-27T04:35:17.646Z,-.38
2022-11-27T04:35:48.566Z,-.38
2022-11-27T04:36:19.553Z,-.38
2022-11-27T04:36:50.608Z,-.38
2022-11-27T04:37:21.568Z,-.38
2022-11-27T04:37:52.551Z,-.38
2022-11-27T04:38:23.559Z,-.38
2022-11-27T04:38:54.547Z,-.27
2022-11-27T04:39:25.595Z,-.27
2022-11-27T04:39:57.538Z,-.27
2022-11-27T04:40:27.531Z,-.27
2022-11-27T04:40:58.632Z,-.27
2022-11-27T04:41:29.555Z,-.27
2022-11-27T04:42:00.633Z,-.27
2022-11-27T04:42:31.552Z,-.27
2022-11-27T04:43:02.647Z,-.27
2022-11-27T04:43:33.558Z,-.27
2022-11-27T04:44:04.723Z,-.27
2022-11-27T04:44:35.592Z,-.27
2022-11-27T04:45:19.939Z,-.27
2022-11-27T04:45:37.663Z,-.27
2022-11-27T04:46:08.632Z,-.27
2022-11-27T04:46:39.617Z,-.27
2022-11-27T04:47:10.590Z,-.27
2022-11-27T04:47:41.552Z,-.27
2022-11-27T04:48:12.548Z,-.27
2022-11-27T04:48:43.538Z,-.27
2022-11-27T04:49:14.595Z,-.27
2022-11-27T04:49:45.635Z,-.27
2022-11-27T04:50:17.608Z,-.27
2022-11-27T04:50:47.599Z,-.27
2022-11-27T04:51:18.692Z,-.27
2022-11-27T04:51:49.552Z,-.27
2022-11-27T04:52:20.746Z,-.27
2022-11-27T04:52:51.540Z,-.22
2022-11-27T04:53:22.582Z,-.22
2022-11-27T04:53:53.538Z,-.22
2022-11-27T04:54:24.554Z,-.22
2022-11-27T04:54:59.840Z,-.22
2022-11-27T04:55:27.724Z,-.22
2022-11-27T04:55:57.537Z,-.22
2022-11-27T04:56:28.541Z,-.22
2022-11-27T04:56:59.591Z,-.22
2022-11-27T04:57:30.575Z,-.22
2022-11-27T04:58:01.698Z,-.22
2022-11-27T04:58:32.597Z,-.22
2022-11-27T04:59:03.613Z,-.22
2022-11-27T04:59:34.624Z,-.22
2022-11-27T05:00:17.887Z,-.22
2022-11-27T05:00:37.619Z,-.22
2022-11-27T05:01:07.600Z,-.22
2022-11-27T05:01:38.553Z,-.22
2022-11-27T05:02:09.561Z,-.22
2022-11-27T05:02:40.620Z,-.22
2022-11-27T05:03:11.792Z,-.22
2022-11-27T05:03:42.548Z,-.22
2022-11-27T05:04:13.700Z,-.22
2022-11-27T05:04:44.545Z,-.22
2022-11-27T05:05:15.586Z,-.22
2022-11-27T05:05:47.542Z,-.22
2022-11-27T05:06:17.543Z,-.22
2022-11-27T05:06:48.568Z,-.27
2022-11-27T05:07:19.585Z,-.27
2022-11-27T05:07:50.613Z,-.27
2022-11-27T05:08:21.620Z,-.22
2022-11-27T05:08:52.708Z,-.22
2022-11-27T05:09:23.737Z,-.22
2022-11-27T05:09:54.582Z,-.22
2022-11-27T05:10:25.556Z,-.22
2022-11-27T05:10:57.530Z,-.22
2022-11-27T05:11:27.636Z,-.22
2022-11-27T05:11:58.614Z,-.22
2022-11-27T05:12:29.548Z,-.22
2022-11-27T05:13:00.593Z,-.22
2022-11-27T05:13:31.600Z,-.22
2022-11-27T05:14:02.590Z,-.22
2022-11-27T05:14:33.525Z,-.22
2022-11-27T05:15:16.905Z,-.22
2022-11-27T05:15:35.594Z,-.22
2022-11-27T05:16:07.649Z,-.22
2022-11-27T05:16:37.636Z,-.22
2022-11-27T05:17:08.559Z,-.22
2022-11-27T05:17:39.574Z,-.22
2022-11-27T05:18:10.588Z,-.22
2022-11-27T05:18:41.594Z,-.22
2022-11-27T05:19:12.564Z,-.22
2022-11-27T05:19:43.616Z,-.22
2022-11-27T05:20:14.585Z,-.22
2022-11-27T05:20:45.568Z,-.22
2022-11-27T05:21:17.538Z,-.22
2022-11-27T05:21:47.692Z,-.22
2022-11-27T05:22:18.599Z,-.22
2022-11-27T05:22:49.524Z,-.22
2022-11-27T05:23:20.551Z,-.22
2022-11-27T05:23:51.644Z,-.22
2022-11-27T05:24:22.543Z,-.22
2022-11-27T05:24:53.672Z,-.22
2022-11-27T05:25:24.550Z,-.22
2022-11-27T05:25:55.532Z,-.22
2022-11-27T05:26:27.729Z,-.22
2022-11-27T05:26:57.576Z,-.22
2022-11-27T05:27:28.528Z,-.22
2022-11-27T05:27:59.631Z,-.22
2022-11-27T05:28:30.677Z,-.22
2022-11-27T05:29:01.723Z,-1.77
2022-11-27T05:29:32.536Z,-.22
2022-11-27T05:30:15.957Z,-.22
2022-11-27T05:30:34.677Z,-.22
2022-11-27T05:31:05.665Z,-.22
2022-11-27T05:31:37.681Z,-.22
2022-11-27T05:32:07.631Z,-.22
2022-11-27T05:32:38.525Z,-.22
2022-11-27T05:33:09.622Z,-.22
2022-11-27T05:33:40.623Z,-.22
2022-11-27T05:34:11.569Z,-.22
2022-11-27T05:34:43.682Z,-.22
2022-11-27T05:35:20.697Z,-.22
2022-11-27T05:35:45.105Z,-.22
2022-11-27T05:36:15.786Z,-.22
2022-11-27T05:36:47.767Z,-.22
2022-11-27T05:37:19.704Z,-.22
2022-11-27T05:37:48.539Z,-.22
2022-11-27T05:38:19.520Z,-.22
2022-11-27T05:38:50.622Z,-.22
2022-11-27T05:39:21.617Z,-.22
2022-11-27T05:39:52.527Z,-.22
2022-11-27T05:40:23.591Z,-.11
2022-11-27T05:40:54.513Z,-.11
2022-11-27T05:41:25.561Z,-.11
2022-11-27T05:41:57.500Z,-.11
2022-11-27T05:42:27.507Z,-.11
2022-11-27T05:42:58.576Z,-.11
2022-11-27T05:43:29.510Z,-.11
2022-11-27T05:44:00.617Z,-.11
2022-11-27T05:44:31.519Z,-.11
2022-11-27T05:45:14.911Z,-.11
2022-11-27T05:45:33.521Z,-.11
2022-11-27T05:46:04.629Z,-.11
2022-11-27T05:46:35.627Z,-.11
2022-11-27T05:47:07.639Z,-.11
2022-11-27T05:47:37.539Z,-.11
2022-11-27T05:48:08.519Z,-.11
2022-11-27T05:48:39.566Z,-.11
2022-11-27T05:49:10.514Z,-.11
2022-11-27T05:49:41.528Z,-.11
2022-11-27T05:50:12.504Z,-.11
2022-11-27T05:50:43.594Z,-.11
2022-11-27T05:51:14.524Z,-.11
2022-11-27T05:51:50.986Z,-.11
2022-11-27T05:52:17.506Z,-.11
2022-11-27T05:52:47.523Z,-.11
2022-11-27T05:53:18.575Z,-.11
2022-11-27T05:53:49.541Z,-.11
2022-11-27T05:54:20.763Z,-.11
2022-11-27T05:54:51.642Z,-.11
2022-11-27T05:55:22.513Z,-.11
2022-11-27T05:55:53.541Z,-.11
2022-11-27T05:56:24.527Z,-.11
2022-11-27T05:56:55.514Z,-.11
2022-11-27T05:57:27.543Z,-.11
2022-11-27T05:57:57.507Z,-.11
2022-11-27T05:58:28.620Z,-.11
2022-11-27T05:58:59.515Z,-.11
2022-11-27T05:59:30.739Z,-.11
2022-11-27T06:00:14.019Z,-.11
2022-11-27T06:00:33.017Z,0
2022-11-27T06:01:03.551Z,0
2022-11-27T06:01:34.574Z,0
2022-11-27T06:02:05.604Z,0
2022-11-27T06:02:37.687Z,0
2022-11-27T06:03:07.678Z,0
2022-11-27T06:03:38.598Z,0
2022-11-27T06:04:10.651Z,-.11
2022-11-27T06:04:40.898Z,-1.61
2022-11-27T06:05:11.586Z,0
2022-11-27T06:05:42.568Z,0
2022-11-27T06:06:13.564Z,0
2022-11-27T06:06:44.520Z,0
2022-11-27T06:07:15.547Z,0
2022-11-27T06:07:47.601Z,0
2022-11-27T06:08:17.590Z,0
2022-11-27T06:08:48.641Z,0
2022-11-27T06:09:19.511Z,0
2022-11-27T06:09:50.529Z,0
2022-11-27T06:10:21.541Z,0
2022-11-27T06:10:52.519Z,0
2022-11-27T06:11:23.513Z,0
2022-11-27T06:11:54.560Z,0
2022-11-27T06:12:25.521Z,0
2022-11-27T06:12:57.507Z,0
2022-11-27T06:13:27.563Z,0
2022-11-27T06:13:58.607Z,0
2022-11-27T06:14:29.585Z,0
2022-11-27T06:15:13.107Z,0
2022-11-27T06:15:31.629Z,0
2022-11-27T06:16:02.583Z,0
2022-11-27T06:16:33.536Z,0
2022-11-27T06:17:04.539Z,0
2022-11-27T06:17:35.563Z,0
2022-11-27T06:18:07.588Z,0
2022-11-27T06:18:37.520Z,0
2022-11-27T06:19:08.602Z,0
2022-11-27T06:19:39.565Z,0
2022-11-27T06:20:10.649Z,0
2022-11-27T06:20:44.711Z,0
2022-11-27T06:21:12.539Z,0
2022-11-27T06:21:43.530Z,.11
2022-11-27T06:22:14.520Z,0
2022-11-27T06:22:45.518Z,0
2022-11-27T06:23:17.549Z,0
2022-11-27T06:23:47.595Z,0
2022-11-27T06:24:18.507Z,0
2022-11-27T06:24:49.507Z,0
2022-11-27T06:25:20.522Z,.11
2022-11-27T06:25:51.617Z,.11
2022-11-27T06:26:22.517Z,.11
2022-11-27T06:26:53.499Z,.11
2022-11-27T06:27:24.534Z,.11
2022-11-27T06:27:55.619Z,.11
2022-11-27T06:28:27.492Z,.11
2022-11-27T06:28:57.501Z,.11
2022-11-27T06:29:28.613Z,.11
2022-11-27T06:29:59.505Z,.11
2022-11-27T06:30:43.084Z,.11
2022-11-27T06:31:01.926Z,.11
2022-11-27T06:31:33.691Z,.11
2022-11-27T06:32:03.626Z,.11
2022-11-27T06:32:34.555Z,.11
2022-11-27T06:33:06.096Z,.11
2022-11-27T06:33:37.509Z,.11
2022-11-27T06:34:07.553Z,.11
2022-11-27T06:34:39.113Z,.11
2022-11-27T06:35:23.160Z,.11
2022-11-27T06:35:41.782Z,.11
2022-11-27T06:36:11.667Z,.11
2022-11-27T06:36:42.609Z,.11
2022-11-27T06:37:13.737Z,.11
2022-11-27T06:37:44.513Z,.11
2022-11-27T06:38:15.592Z,.11
2022-11-27T06:38:47.517Z,.11
2022-11-27T06:39:17.540Z,.11
2022-11-27T06:39:48.522Z,.11
2022-11-27T06:40:19.586Z,.11
2022-11-27T06:40:50.516Z,.11
2022-11-27T06:41:21.545Z,.11
2022-11-27T06:41:52.558Z,.11
2022-11-27T06:42:23.646Z,.11
2022-11-27T06:42:54.501Z,.11
2022-11-27T06:43:25.579Z,.11
2022-11-27T06:43:57.585Z,.11
2022-11-27T06:44:27.646Z,.11
2022-11-27T06:44:58.619Z,.11
2022-11-27T06:45:42.015Z,.11
2022-11-27T06:46:00.740Z,.11
2022-11-27T06:46:31.694Z,0
2022-11-27T06:47:02.677Z,0
2022-11-27T06:47:33.659Z,0
2022-11-27T06:48:04.921Z,0
2022-11-27T06:48:35.592Z,0
2022-11-27T06:49:07.588Z,0
2022-11-27T06:49:37.575Z,.11
2022-11-27T06:50:08.596Z,.11
2022-11-27T06:50:39.561Z,.11
2022-11-27T06:51:10.583Z,.11
2022-11-27T06:51:41.630Z,.11
2022-11-27T06:52:12.579Z,0
2022-11-27T06:52:43.587Z,0
2022-11-27T06:53:14.593Z,0
2022-11-27T06:53:45.590Z,0
2022-11-27T06:54:17.580Z,0
2022-11-27T06:54:47.553Z,0
2022-11-27T06:55:18.687Z,0
2022-11-27T06:55:49.563Z,0
2022-11-27T06:56:20.591Z,0
2022-11-27T06:56:51.901Z,0
2022-11-27T06:57:22.941Z,0
2022-11-27T06:57:53.577Z,0
2022-11-27T06:58:29.341Z,0
2022-11-27T06:58:55.591Z,0
2022-11-27T06:59:27.588Z,0
2022-11-27T06:59:57.572Z,0
2022-11-27T07:00:41.030Z,0
2022-11-27T07:00:59.787Z,0
2022-11-27T07:01:30.844Z,0
2022-11-27T07:02:02.642Z,0